sensor_id;sensor_type;location;lat;lon;timestamp;pressure;altitude;pressure_sealevel;temperature;humidity
31775;BME280;66189;49.000;11.640;2023-01-28T00:01:15;96362.41;;;-2.03;83.91
31775;BME280;66189;49.000;11.640;2023-01-28T00:03:16;96358.97;;;-2.03;83.87
31775;BME280;66189;49.000;11.640;2023-01-28T00:05:16;96359.50;;;-2.01;83.89
31775;BME280;66189;49.000;11.640;2023-01-28T00:07:17;96359.75;;;-1.98;83.47
31775;BME280;66189;49.000;11.640;2023-01-28T00:09:18;96359.22;;;-2.00;83.53
31775;BME280;66189;49.000;11.640;2023-01-28T00:11:19;96361.09;;;-2.00;83.82
31775;BME280;66189;49.000;11.640;2023-01-28T00:13:21;96356.59;;;-2.05;84.04
31775;BME280;66189;49.000;11.640;2023-01-28T00:15:22;96350.00;;;-2.07;84.21
31775;BME280;66189;49.000;11.640;2023-01-28T00:17:24;96351.31;;;-2.00;83.79
31775;BME280;66189;49.000;11.640;2023-01-28T00:19:25;96359.50;;;-2.01;83.95
31775;BME280;66189;49.000;11.640;2023-01-28T00:21:25;96357.38;;;-2.04;83.80
31775;BME280;66189;49.000;11.640;2023-01-28T00:23:27;96360.00;;;-1.99;83.90
31775;BME280;66189;49.000;11.640;2023-01-28T00:25:29;96363.72;;;-2.00;83.97
31775;BME280;66189;49.000;11.640;2023-01-28T00:27:30;96367.94;;;-2.04;84.14
31775;BME280;66189;49.000;11.640;2023-01-28T00:29:31;96362.09;;;-1.96;83.62
31775;BME280;66189;49.000;11.640;2023-01-28T00:31:32;96363.19;;;-2.02;84.01
31775;BME280;66189;49.000;11.640;2023-01-28T00:33:37;96372.66;;;-1.96;83.77
31775;BME280;66189;49.000;11.640;2023-01-28T00:35:37;96366.63;;;-2.02;83.77
31775;BME280;66189;49.000;11.640;2023-01-28T00:37:38;96365.00;;;-1.87;84.11
31775;BME280;66189;49.000;11.640;2023-01-28T00:39:38;96369.25;;;-1.97;84.09
31775;BME280;66189;49.000;11.640;2023-01-28T00:41:38;96364.75;;;-1.96;83.99
31775;BME280;66189;49.000;11.640;2023-01-28T00:43:39;96369.00;;;-2.00;84.21
31775;BME280;66189;49.000;11.640;2023-01-28T00:45:40;96373.72;;;-1.97;84.58
31775;BME280;66189;49.000;11.640;2023-01-28T00:47:41;96369.25;;;-1.97;84.34
31775;BME280;66189;49.000;11.640;2023-01-28T00:49:41;96368.44;;;-2.02;84.64
31775;BME280;66189;49.000;11.640;2023-01-28T00:51:42;96367.66;;;-1.98;84.35
31775;BME280;66189;49.000;11.640;2023-01-28T00:53:43;96377.94;;;-1.96;84.93
31775;BME280;66189;49.000;11.640;2023-01-28T00:55:45;96370.81;;;-2.01;84.83
31775;BME280;66189;49.000;11.640;2023-01-28T00:57:45;96370.81;;;-1.95;84.82
31775;BME280;66189;49.000;11.640;2023-01-28T00:59:46;96366.84;;;-1.93;84.72
31775;BME280;66189;49.000;11.640;2023-01-28T01:01:46;96369.75;;;-1.94;84.24
31775;BME280;66189;49.000;11.640;2023-01-28T01:03:47;96370.03;;;-2.01;84.65
31775;BME280;66189;49.000;11.640;2023-01-28T01:05:56;96366.34;;;-1.95;84.88
31775;BME280;66189;49.000;11.640;2023-01-28T01:07:56;96375.28;;;-1.96;85.14
31775;BME280;66189;49.000;11.640;2023-01-28T01:09:58;96371.91;;;-2.02;84.94
31775;BME280;66189;49.000;11.640;2023-01-28T01:12:00;96369.47;;;-1.93;85.10
31775;BME280;66189;49.000;11.640;2023-01-28T01:14:01;96373.44;;;-1.90;84.84
31775;BME280;66189;49.000;11.640;2023-01-28T01:16:12;96371.59;;;-1.95;84.74
31775;BME280;66189;49.000;11.640;2023-01-28T01:18:13;96369.50;;;-1.98;84.87
31775;BME280;66189;49.000;11.640;2023-01-28T01:20:24;96372.38;;;-1.94;84.61
31775;BME280;66189;49.000;11.640;2023-01-28T01:22:25;96382.94;;;-1.94;84.73
31775;BME280;66189;49.000;11.640;2023-01-28T01:24:25;96385.59;;;-2.00;84.66
31775;BME280;66189;49.000;11.640;2023-01-28T01:26:28;96381.38;;;-1.95;84.92
31775;BME280;66189;49.000;11.640;2023-01-28T01:28:31;96378.19;;;-1.98;84.65
31775;BME280;66189;49.000;11.640;2023-01-28T01:30:32;96384.25;;;-1.92;84.63
31775;BME280;66189;49.000;11.640;2023-01-28T01:32:33;96380.03;;;-1.93;84.75
31775;BME280;66189;49.000;11.640;2023-01-28T01:34:34;96391.63;;;-1.89;84.63
31775;BME280;66189;49.000;11.640;2023-01-28T01:36:34;96391.66;;;-1.94;84.24
31775;BME280;66189;49.000;11.640;2023-01-28T01:38:35;96386.38;;;-1.94;84.07
31775;BME280;66189;49.000;11.640;2023-01-28T01:40:36;96384.25;;;-1.92;84.43
31775;BME280;66189;49.000;11.640;2023-01-28T01:42:36;96393.50;;;-1.89;84.56
31775;BME280;66189;49.000;11.640;2023-01-28T01:46:59;96386.63;;;-1.90;84.40
31775;BME280;66189;49.000;11.640;2023-01-28T01:49:07;96389.53;;;-1.92;84.40
31775;BME280;66189;49.000;11.640;2023-01-28T01:51:15;96395.88;;;-1.88;84.35
31775;BME280;66189;49.000;11.640;2023-01-28T01:53:18;96401.13;;;-1.93;84.21
31775;BME280;66189;49.000;11.640;2023-01-28T01:55:23;96399.81;;;-1.90;83.98
31775;BME280;66189;49.000;11.640;2023-01-28T01:57:29;96399.28;;;-1.87;84.04
31775;BME280;66189;49.000;11.640;2023-01-28T01:59:32;96398.22;;;-1.91;84.26
31775;BME280;66189;49.000;11.640;2023-01-28T02:01:34;96396.91;;;-1.89;84.16
31775;BME280;66189;49.000;11.640;2023-01-28T02:06:14;96400.09;;;-1.92;84.43
31775;BME280;66189;49.000;11.640;2023-01-28T02:08:16;96394.53;;;-1.90;84.00
31775;BME280;66189;49.000;11.640;2023-01-28T02:10:24;96397.72;;;-1.93;84.29
31775;BME280;66189;49.000;11.640;2023-01-28T02:12:30;96395.06;;;-1.93;83.92
31775;BME280;66189;49.000;11.640;2023-01-28T02:14:38;96400.34;;;-1.93;84.37
31775;BME280;66189;49.000;11.640;2023-01-28T02:16:42;96397.72;;;-1.99;84.23
31775;BME280;66189;49.000;11.640;2023-01-28T02:18:43;96404.56;;;-1.98;84.62
31775;BME280;66189;49.000;11.640;2023-01-28T02:30:25;96408.78;;;-1.91;84.22
31775;BME280;66189;49.000;11.640;2023-01-28T02:32:37;96414.03;;;-1.91;84.57
31775;BME280;66189;49.000;11.640;2023-01-28T02:34:44;96411.69;;;-1.88;84.49
31775;BME280;66189;49.000;11.640;2023-01-28T02:39:09;96418.00;;;-1.89;84.59
31775;BME280;66189;49.000;11.640;2023-01-28T02:41:23;96415.63;;;-1.90;84.39
31775;BME280;66189;49.000;11.640;2023-01-28T02:45:36;96421.16;;;-1.87;84.78
31775;BME280;66189;49.000;11.640;2023-01-28T02:47:55;96421.19;;;-1.92;84.36
31775;BME280;66189;49.000;11.640;2023-01-28T02:50:03;96422.75;;;-1.91;84.65
31775;BME280;66189;49.000;11.640;2023-01-28T02:58:04;96418.28;;;-1.85;84.91
31775;BME280;66189;49.000;11.640;2023-01-28T03:00:23;96419.59;;;-1.88;84.18
31775;BME280;66189;49.000;11.640;2023-01-28T03:02:47;96411.41;;;-1.86;83.92
31775;BME280;66189;49.000;11.640;2023-01-28T03:06:58;96415.91;;;-1.97;84.30
31775;BME280;66189;49.000;11.640;2023-01-28T03:09:05;96417.47;;;-1.96;84.07
31775;BME280;66189;49.000;11.640;2023-01-28T03:11:22;96420.91;;;-2.01;84.40
31775;BME280;66189;49.000;11.640;2023-01-28T03:13:42;96423.81;;;-2.02;84.41
31775;BME280;66189;49.000;11.640;2023-01-28T03:16:03;96419.88;;;-2.00;84.70
31775;BME280;66189;49.000;11.640;2023-01-28T03:18:25;96426.47;;;-1.97;84.38
31775;BME280;66189;49.000;11.640;2023-01-28T03:20:58;96421.97;;;-1.97;84.33
31775;BME280;66189;49.000;11.640;2023-01-28T03:23:25;96427.53;;;-2.03;84.75
31775;BME280;66189;49.000;11.640;2023-01-28T03:25:47;96418.28;;;-2.01;84.78
31775;BME280;66189;49.000;11.640;2023-01-28T03:28:09;96432.50;;;-1.97;84.51
31775;BME280;66189;49.000;11.640;2023-01-28T03:30:45;96424.06;;;-1.93;84.26
31775;BME280;66189;49.000;11.640;2023-01-28T03:33:18;96427.75;;;-1.94;84.36
31775;BME280;66189;49.000;11.640;2023-01-28T03:35:38;96430.41;;;-2.00;84.16
31775;BME280;66189;49.000;11.640;2023-01-28T03:37:58;96431.22;;;-1.94;84.71
31775;BME280;66189;49.000;11.640;2023-01-28T03:40:05;96439.63;;;-1.92;84.34
31775;BME280;66189;49.000;11.640;2023-01-28T03:42:09;96438.31;;;-1.94;84.58
31775;BME280;66189;49.000;11.640;2023-01-28T03:44:19;96439.91;;;-1.99;84.52
31775;BME280;66189;49.000;11.640;2023-01-28T03:46:37;96437.78;;;-1.97;84.86
31775;BME280;66189;49.000;11.640;2023-01-28T03:48:40;96442.28;;;-1.97;84.70
31775;BME280;66189;49.000;11.640;2023-01-28T03:50:43;96442.53;;;-1.99;84.34
31775;BME280;66189;49.000;11.640;2023-01-28T03:52:43;96434.63;;;-1.99;84.29
31775;BME280;66189;49.000;11.640;2023-01-28T03:55:01;96440.19;;;-2.00;84.53
31775;BME280;66189;49.000;11.640;2023-01-28T03:57:03;96444.66;;;-2.06;84.89
31775;BME280;66189;49.000;11.640;2023-01-28T03:59:06;96447.28;;;-2.06;84.86
31775;BME280;66189;49.000;11.640;2023-01-28T04:01:07;96447.81;;;-2.04;84.31
31775;BME280;66189;49.000;11.640;2023-01-28T04:03:18;96446.22;;;-2.00;84.45
31775;BME280;66189;49.000;11.640;2023-01-28T04:05:27;96452.56;;;-2.06;84.58
31775;BME280;66189;49.000;11.640;2023-01-28T04:07:28;96446.75;;;-2.13;84.82
31775;BME280;66189;49.000;11.640;2023-01-28T04:09:42;96449.66;;;-2.15;84.78
31775;BME280;66189;49.000;11.640;2023-01-28T04:11:59;96452.31;;;-2.09;84.86
31775;BME280;66189;49.000;11.640;2023-01-28T04:14:08;96445.69;;;-2.12;84.74
31775;BME280;66189;49.000;11.640;2023-01-28T04:16:19;96449.41;;;-2.08;84.86
31775;BME280;66189;49.000;11.640;2023-01-28T04:18:20;96453.59;;;-2.07;84.93
31775;BME280;66189;49.000;11.640;2023-01-28T04:20:26;96448.59;;;-2.08;84.98
31775;BME280;66189;49.000;11.640;2023-01-28T04:22:28;96456.50;;;-2.08;84.87
31775;BME280;66189;49.000;11.640;2023-01-28T04:24:30;96458.63;;;-2.05;85.05
31775;BME280;66189;49.000;11.640;2023-01-28T04:26:30;96461.50;;;-2.07;85.22
31775;BME280;66189;49.000;11.640;2023-01-28T04:28:31;96459.13;;;-2.08;84.87
31775;BME280;66189;49.000;11.640;2023-01-28T04:30:33;96461.53;;;-2.12;85.16
31775;BME280;66189;49.000;11.640;2023-01-28T04:32:56;96464.16;;;-2.12;84.82
31775;BME280;66189;49.000;11.640;2023-01-28T04:35:14;96471.81;;;-2.10;85.25
31775;BME280;66189;49.000;11.640;2023-01-28T04:37:27;96469.44;;;-2.12;85.09
31775;BME280;66189;49.000;11.640;2023-01-28T04:39:48;96477.84;;;-2.10;85.09
31775;BME280;66189;49.000;11.640;2023-01-28T04:41:52;96473.91;;;-2.12;85.41
31775;BME280;66189;49.000;11.640;2023-01-28T04:44:02;96472.88;;;-2.06;85.19
31775;BME280;66189;49.000;11.640;2023-01-28T04:46:26;96478.66;;;-2.04;85.60
31775;BME280;66189;49.000;11.640;2023-01-28T04:48:47;96473.66;;;-2.11;85.45
31775;BME280;66189;49.000;11.640;2023-01-28T04:51:07;96479.19;;;-2.07;85.79
31775;BME280;66189;49.000;11.640;2023-01-28T04:53:18;96481.81;;;-2.07;85.82
31775;BME280;66189;49.000;11.640;2023-01-28T04:55:45;96488.41;;;-2.05;85.74
31775;BME280;66189;49.000;11.640;2023-01-28T04:57:46;96482.88;;;-2.03;85.91
31775;BME280;66189;49.000;11.640;2023-01-28T04:59:50;96489.72;;;-2.02;85.96
31775;BME280;66189;49.000;11.640;2023-01-28T05:01:51;96490.53;;;-2.02;85.84
31775;BME280;66189;49.000;11.640;2023-01-28T05:03:52;96489.22;;;-2.04;85.58
31775;BME280;66189;49.000;11.640;2023-01-28T05:05:59;96487.09;;;-2.02;85.53
31775;BME280;66189;49.000;11.640;2023-01-28T05:08:29;96483.91;;;-1.99;85.54
31775;BME280;66189;49.000;11.640;2023-01-28T05:10:30;96482.09;;;-1.99;85.39
31775;BME280;66189;49.000;11.640;2023-01-28T05:12:31;96480.25;;;-1.98;85.41
31775;BME280;66189;49.000;11.640;2023-01-28T05:14:35;96484.72;;;-1.93;85.52
31775;BME280;66189;49.000;11.640;2023-01-28T05:16:39;96483.13;;;-2.00;85.28
31775;BME280;66189;49.000;11.640;2023-01-28T05:18:40;96475.22;;;-2.00;85.17
31775;BME280;66189;49.000;11.640;2023-01-28T05:20:48;96482.09;;;-1.99;84.97
31775;BME280;66189;49.000;11.640;2023-01-28T05:22:48;96484.47;;;-1.97;85.11
31775;BME280;66189;49.000;11.640;2023-01-28T05:24:54;96488.94;;;-1.98;85.01
31775;BME280;66189;49.000;11.640;2023-01-28T05:26:55;96488.94;;;-1.98;85.38
31775;BME280;66189;49.000;11.640;2023-01-28T05:28:55;96483.91;;;-1.99;85.32
31775;BME280;66189;49.000;11.640;2023-01-28T05:31:05;96487.09;;;-2.02;84.96
31775;BME280;66189;49.000;11.640;2023-01-28T05:33:05;96481.03;;;-2.03;85.00
31775;BME280;66189;49.000;11.640;2023-01-28T05:35:06;96478.66;;;-1.99;85.00
31775;BME280;66189;49.000;11.640;2023-01-28T05:37:07;96488.69;;;-2.01;84.86
31775;BME280;66189;49.000;11.640;2023-01-28T05:39:10;96491.06;;;-2.00;84.67
31775;BME280;66189;49.000;11.640;2023-01-28T05:41:11;96485.00;;;-2.00;85.04
31775;BME280;66189;49.000;11.640;2023-01-28T05:43:12;96488.94;;;-1.98;85.07
31775;BME280;66189;49.000;11.640;2023-01-28T05:45:17;96485.25;;;-1.97;84.84
31775;BME280;66189;49.000;11.640;2023-01-28T05:47:37;96486.56;;;-1.94;84.35
31775;BME280;66189;49.000;11.640;2023-01-28T05:49:52;96494.75;;;-1.95;84.52
31775;BME280;66189;49.000;11.640;2023-01-28T05:52:17;96493.16;;;-1.91;84.10
31775;BME280;66189;49.000;11.640;2023-01-28T05:54:18;96492.09;;;-1.90;84.27
31775;BME280;66189;49.000;11.640;2023-01-28T05:56:19;96494.22;;;-1.92;84.40
31775;BME280;66189;49.000;11.640;2023-01-28T05:58:20;96488.94;;;-1.98;84.14
31775;BME280;66189;49.000;11.640;2023-01-28T06:00:20;96495.00;;;-1.97;84.27
31775;BME280;66189;49.000;11.640;2023-01-28T06:02:21;96500.56;;;-1.99;84.61
31775;BME280;66189;49.000;11.640;2023-01-28T06:04:24;96497.09;;;-1.99;84.40
31775;BME280;66189;49.000;11.640;2023-01-28T06:06:25;96504.22;;;-1.94;84.47
31775;BME280;66189;49.000;11.640;2023-01-28T06:08:26;96500.53;;;-1.93;84.42
31775;BME280;66189;49.000;11.640;2023-01-28T06:10:32;96509.50;;;-1.94;84.63
31775;BME280;66189;49.000;11.640;2023-01-28T06:12:33;96498.16;;;-1.95;84.29
31775;BME280;66189;49.000;11.640;2023-01-28T06:14:57;96505.28;;;-1.90;84.40
31775;BME280;66189;49.000;11.640;2023-01-28T06:17:36;96508.19;;;-1.92;84.23
31775;BME280;66189;49.000;11.640;2023-01-28T06:19:41;96515.84;;;-1.90;84.40
31775;BME280;66189;49.000;11.640;2023-01-28T06:21:43;96512.69;;;-1.92;84.19
31775;BME280;66189;49.000;11.640;2023-01-28T06:23:45;96510.81;;;-1.92;84.62
31775;BME280;66189;49.000;11.640;2023-01-28T06:25:45;96519.78;;;-1.93;84.24
31775;BME280;66189;49.000;11.640;2023-01-28T06:27:48;96519.78;;;-1.93;84.36
31775;BME280;66189;49.000;11.640;2023-01-28T06:29:48;96521.63;;;-1.93;84.31
31775;BME280;66189;49.000;11.640;2023-01-28T06:31:50;96519.53;;;-1.91;84.08
31775;BME280;66189;49.000;11.640;2023-01-28T06:33:50;96530.34;;;-1.93;84.42
31775;BME280;66189;49.000;11.640;2023-01-28T06:35:51;96537.97;;;-1.91;83.97
31775;BME280;66189;49.000;11.640;2023-01-28T06:37:52;96530.06;;;-1.91;84.21
31775;BME280;66189;49.000;11.640;2023-01-28T06:39:53;96534.56;;;-1.97;84.42
31775;BME280;66189;49.000;11.640;2023-01-28T06:41:54;96530.88;;;-1.91;84.26
31775;BME280;66189;49.000;11.640;2023-01-28T06:43:54;96537.72;;;-1.95;84.25
31775;BME280;66189;49.000;11.640;2023-01-28T06:45:56;96535.88;;;-1.94;84.13
31775;BME280;66189;49.000;11.640;2023-01-28T06:47:56;96539.06;;;-1.92;84.41
31775;BME280;66189;49.000;11.640;2023-01-28T06:49:57;96542.72;;;-1.93;84.19
31775;BME280;66189;49.000;11.640;2023-01-28T06:51:57;96541.16;;;-1.89;84.39
31775;BME280;66189;49.000;11.640;2023-01-28T06:53:58;96549.06;;;-1.89;84.25
31775;BME280;66189;49.000;11.640;2023-01-28T06:55:58;96548.78;;;-1.93;83.51
31775;BME280;66189;49.000;11.640;2023-01-28T06:57:59;96548.53;;;-1.91;84.02
31775;BME280;66189;49.000;11.640;2023-01-28T06:59:59;96545.88;;;-1.91;84.01
31775;BME280;66189;49.000;11.640;2023-01-28T07:01:59;96552.50;;;-1.89;84.21
31775;BME280;66189;49.000;11.640;2023-01-28T07:04:00;96559.06;;;-1.91;84.06
31775;BME280;66189;49.000;11.640;2023-01-28T07:06:00;96562.25;;;-1.89;84.08
31775;BME280;66189;49.000;11.640;2023-01-28T07:08:01;96560.66;;;-1.90;84.25
31775;BME280;66189;49.000;11.640;2023-01-28T07:10:02;96564.91;;;-1.89;84.12
31775;BME280;66189;49.000;11.640;2023-01-28T07:12:02;96571.72;;;-1.88;83.77
31775;BME280;66189;49.000;11.640;2023-01-28T07:14:04;96573.34;;;-1.92;84.13
31775;BME280;66189;49.000;11.640;2023-01-28T07:16:05;96574.91;;;-1.91;84.31
31775;BME280;66189;49.000;11.640;2023-01-28T07:18:06;96567.28;;;-1.88;84.03
31775;BME280;66189;49.000;11.640;2023-01-28T07:20:09;96580.72;;;-1.84;84.25
31775;BME280;66189;49.000;11.640;2023-01-28T07:22:10;96570.16;;;-1.89;83.84
31775;BME280;66189;49.000;11.640;2023-01-28T07:24:10;96573.88;;;-1.85;84.21
31775;BME280;66189;49.000;11.640;2023-01-28T07:26:11;96583.09;;;-1.88;84.18
31775;BME280;66189;49.000;11.640;2023-01-28T07:28:11;96577.56;;;-1.86;84.19
31775;BME280;66189;49.000;11.640;2023-01-28T07:30:12;96585.22;;;-1.85;84.35
31775;BME280;66189;49.000;11.640;2023-01-28T07:32:13;96589.44;;;-1.84;84.41
31775;BME280;66189;49.000;11.640;2023-01-28T07:34:13;96587.31;;;-1.82;84.52
31775;BME280;66189;49.000;11.640;2023-01-28T07:36:14;96588.41;;;-1.77;84.20
31775;BME280;66189;49.000;11.640;2023-01-28T07:38:14;96588.91;;;-1.75;84.34
31775;BME280;66189;49.000;11.640;2023-01-28T07:40:15;96591.81;;;-1.77;84.23
31775;BME280;66189;49.000;11.640;2023-01-28T07:42:15;96599.19;;;-1.74;83.71
31775;BME280;66189;49.000;11.640;2023-01-28T07:44:20;96598.16;;;-1.73;83.81
31775;BME280;66189;49.000;11.640;2023-01-28T07:46:21;96606.31;;;-1.74;84.11
31775;BME280;66189;49.000;11.640;2023-01-28T07:48:21;96597.91;;;-1.71;83.70
31775;BME280;66189;49.000;11.640;2023-01-28T07:50:22;96598.41;;;-1.69;83.61
31775;BME280;66189;49.000;11.640;2023-01-28T07:52:22;96606.59;;;-1.66;83.86
31775;BME280;66189;49.000;11.640;2023-01-28T07:54:23;96606.59;;;-1.66;83.78
31775;BME280;66189;49.000;11.640;2023-01-28T07:56:24;96605.28;;;-1.68;83.80
31775;BME280;66189;49.000;11.640;2023-01-28T07:58:26;96612.94;;;-1.67;84.11
31775;BME280;66189;49.000;11.640;2023-01-28T08:00:29;96612.38;;;-1.69;84.12
31775;BME280;66189;49.000;11.640;2023-01-28T08:02:29;96608.19;;;-1.65;84.30
31775;BME280;66189;49.000;11.640;2023-01-28T08:04:30;96609.78;;;-1.64;83.99
31775;BME280;66189;49.000;11.640;2023-01-28T08:06:30;96613.97;;;-1.68;83.93
31775;BME280;66189;49.000;11.640;2023-01-28T08:08:37;96613.97;;;-1.63;84.20
31775;BME280;66189;49.000;11.640;2023-01-28T08:10:37;96615.03;;;-1.58;84.32
31775;BME280;66189;49.000;11.640;2023-01-28T08:12:38;96619.28;;;-1.57;84.13
31775;BME280;66189;49.000;11.640;2023-01-28T08:14:39;96623.47;;;-1.56;84.29
31775;BME280;66189;49.000;11.640;2023-01-28T08:16:39;96624.81;;;-1.59;83.83
31775;BME280;66189;49.000;11.640;2023-01-28T08:18:40;96627.72;;;-1.55;84.75
31775;BME280;66189;49.000;11.640;2023-01-28T08:20:41;96629.31;;;-1.54;84.54
31775;BME280;66189;49.000;11.640;2023-01-28T08:22:43;96631.69;;;-1.53;84.57
31775;BME280;66189;49.000;11.640;2023-01-28T08:24:44;96629.56;;;-1.56;84.30
31775;BME280;66189;49.000;11.640;2023-01-28T08:26:47;96626.66;;;-1.49;84.27
31775;BME280;66189;49.000;11.640;2023-01-28T08:28:47;96630.38;;;-1.50;84.19
31775;BME280;66189;49.000;11.640;2023-01-28T08:30:48;96628.25;;;-1.48;84.14
31775;BME280;66189;49.000;11.640;2023-01-28T08:32:48;96632.47;;;-1.47;83.96
31775;BME280;66189;49.000;11.640;2023-01-28T08:34:48;96627.72;;;-1.45;84.15
31775;BME280;66189;49.000;11.640;2023-01-28T08:36:50;96627.22;;;-1.47;84.38
31775;BME280;66189;49.000;11.640;2023-01-28T08:38:51;96622.97;;;-1.48;84.13
31775;BME280;66189;49.000;11.640;2023-01-28T08:40:55;96621.91;;;-1.42;83.96
31775;BME280;66189;49.000;11.640;2023-01-28T08:42:55;96619.56;;;-1.49;83.85
31775;BME280;66189;49.000;11.640;2023-01-28T08:44:56;96614.00;;;-1.47;84.38
31775;BME280;66189;49.000;11.640;2023-01-28T08:46:56;96616.38;;;-1.51;84.45
31775;BME280;66189;49.000;11.640;2023-01-28T08:48:57;96620.06;;;-1.52;84.17
31775;BME280;66189;49.000;11.640;2023-01-28T08:50:58;96618.47;;;-1.48;84.52
31775;BME280;66189;49.000;11.640;2023-01-28T08:53:01;96628.25;;;-1.43;84.83
31775;BME280;66189;49.000;11.640;2023-01-28T08:55:03;96622.44;;;-1.40;84.51
31775;BME280;66189;49.000;11.640;2023-01-28T08:57:04;96628.78;;;-1.41;83.95
31775;BME280;66189;49.000;11.640;2023-01-28T08:59:05;96615.84;;;-1.37;84.36
31775;BME280;66189;49.000;11.640;2023-01-28T09:01:05;96614.25;;;-1.38;84.21
31775;BME280;66189;49.000;11.640;2023-01-28T09:03:06;96619.81;;;-1.30;84.04
31775;BME280;66189;49.000;11.640;2023-01-28T09:05:07;96628.25;;;-1.28;83.97
31775;BME280;66189;49.000;11.640;2023-01-28T09:07:08;96633.00;;;-1.25;84.09
31775;BME280;66189;49.000;11.640;2023-01-28T09:09:08;96631.16;;;-1.24;84.23
31775;BME280;66189;49.000;11.640;2023-01-28T09:11:09;96628.25;;;-1.22;84.13
31775;BME280;66189;49.000;11.640;2023-01-28T09:13:12;96629.84;;;-1.21;84.41
31775;BME280;66189;49.000;11.640;2023-01-28T09:15:13;96643.56;;;-1.19;83.90
31775;BME280;66189;49.000;11.640;2023-01-28T09:17:14;96637.78;;;-1.21;84.09
31775;BME280;66189;49.000;11.640;2023-01-28T09:19:14;96635.13;;;-1.16;83.62
31775;BME280;66189;49.000;11.640;2023-01-28T09:21:14;96636.97;;;-1.22;83.68
31775;BME280;66189;49.000;11.640;2023-01-28T09:23:15;96633.00;;;-1.14;83.71
31775;BME280;66189;49.000;11.640;2023-01-28T09:25:15;96646.19;;;-1.14;83.73
31775;BME280;66189;49.000;11.640;2023-01-28T09:27:16;96636.44;;;-1.24;83.24
31775;BME280;66189;49.000;11.640;2023-01-28T09:29:17;96642.53;;;-1.18;84.01
31775;BME280;66189;49.000;11.640;2023-01-28T09:31:17;96643.56;;;-1.14;83.95
31775;BME280;66189;49.000;11.640;2023-01-28T09:33:17;96643.56;;;-1.19;82.94
31775;BME280;66189;49.000;11.640;2023-01-28T09:35:18;96642.78;;;-1.15;83.75
31775;BME280;66189;49.000;11.640;2023-01-28T09:37:18;96639.34;;;-1.10;83.03
31775;BME280;66189;49.000;11.640;2023-01-28T09:39:19;96641.97;;;-1.10;83.12
31775;BME280;66189;49.000;11.640;2023-01-28T09:44:04;96643.84;;;-1.11;83.19
31775;BME280;66189;49.000;11.640;2023-01-28T09:46:07;96646.19;;;-1.04;83.21
31775;BME280;66189;49.000;11.640;2023-01-28T09:48:22;96645.94;;;-1.02;82.99
31775;BME280;66189;49.000;11.640;2023-01-28T09:50:35;96649.91;;;-1.00;83.22
31775;BME280;66189;49.000;11.640;2023-01-28T09:52:38;96652.28;;;-0.98;82.98
31775;BME280;66189;49.000;11.640;2023-01-28T09:54:45;96651.19;;;-0.97;82.73
31775;BME280;66189;49.000;11.640;2023-01-28T09:56:53;96655.16;;;-0.95;82.93
31775;BME280;66189;49.000;11.640;2023-01-28T09:58:58;96657.81;;;-0.90;82.94
31775;BME280;66189;49.000;11.640;2023-01-28T10:01:28;96657.56;;;-0.88;82.59
31775;BME280;66189;49.000;11.640;2023-01-28T10:03:50;96657.56;;;-0.88;82.59
31775;BME280;66189;49.000;11.640;2023-01-28T10:10:49;96659.41;;;-0.83;82.15
31775;BME280;66189;49.000;11.640;2023-01-28T10:17:43;96658.59;;;-0.84;82.54
31775;BME280;66189;49.000;11.640;2023-01-28T10:19:52;96655.69;;;-0.87;82.85
31775;BME280;66189;49.000;11.640;2023-01-28T10:22:04;96658.59;;;-0.84;82.58
31775;BME280;66189;49.000;11.640;2023-01-28T10:26:24;96653.31;;;-0.84;82.48
31775;BME280;66189;49.000;11.640;2023-01-28T10:28:28;96654.91;;;-0.83;83.08
31775;BME280;66189;49.000;11.640;2023-01-28T10:30:31;96661.50;;;-0.80;83.11
31775;BME280;66189;49.000;11.640;2023-01-28T10:32:34;96656.75;;;-0.78;83.05
31775;BME280;66189;49.000;11.640;2023-01-28T10:34:37;96650.69;;;-0.79;82.79
31775;BME280;66189;49.000;11.640;2023-01-28T10:36:38;96655.97;;;-0.79;83.18
31775;BME280;66189;49.000;11.640;2023-01-28T10:38:38;96662.03;;;-0.78;83.08
31775;BME280;66189;49.000;11.640;2023-01-28T10:40:42;96653.84;;;-0.77;82.81
31775;BME280;66189;49.000;11.640;2023-01-28T10:42:47;96655.97;;;-0.79;82.62
31775;BME280;66189;49.000;11.640;2023-01-28T10:44:48;96656.47;;;-0.77;82.56
31775;BME280;66189;49.000;11.640;2023-01-28T10:46:50;96658.34;;;-0.77;82.76
31775;BME280;66189;49.000;11.640;2023-01-28T10:49:23;96659.13;;;-0.87;82.54
31775;BME280;66189;49.000;11.640;2023-01-28T10:51:39;96657.81;;;-0.84;83.01
31775;BME280;66189;49.000;11.640;2023-01-28T10:53:44;96651.47;;;-0.83;83.00
31775;BME280;66189;49.000;11.640;2023-01-28T10:55:51;96651.47;;;-0.83;82.92
31775;BME280;66189;49.000;11.640;2023-01-28T10:57:53;96648.84;;;-0.83;82.74
31775;BME280;66189;49.000;11.640;2023-01-28T10:59:54;96650.13;;;-0.81;82.69
31775;BME280;66189;49.000;11.640;2023-01-28T11:02:04;96648.03;;;-0.79;82.89
31775;BME280;66189;49.000;11.640;2023-01-28T11:04:33;96651.22;;;-0.82;83.12
31775;BME280;66189;49.000;11.640;2023-01-28T11:06:34;96653.31;;;-0.79;83.20
31775;BME280;66189;49.000;11.640;2023-01-28T11:08:42;96651.97;;;-0.76;83.57
31775;BME280;66189;49.000;11.640;2023-01-28T11:10:44;96648.00;;;-0.74;83.23
31775;BME280;66189;49.000;11.640;2023-01-28T11:12:54;96648.00;;;-0.74;83.49
31775;BME280;66189;49.000;11.640;2023-01-28T11:14:56;96655.97;;;-0.79;83.94
31775;BME280;66189;49.000;11.640;2023-01-28T11:16:57;96648.00;;;-0.74;84.10
31775;BME280;66189;49.000;11.640;2023-01-28T11:19:01;96648.25;;;-0.70;83.99
31775;BME280;66189;49.000;11.640;2023-01-28T11:21:05;96647.47;;;-0.70;84.57
31775;BME280;66189;49.000;11.640;2023-01-28T11:23:17;96652.75;;;-0.70;84.48
31775;BME280;66189;49.000;11.640;2023-01-28T11:25:34;96650.91;;;-0.70;84.44
31775;BME280;66189;49.000;11.640;2023-01-28T11:27:36;96659.66;;;-0.69;84.42
31775;BME280;66189;49.000;11.640;2023-01-28T11:29:38;96655.41;;;-0.70;84.69
31775;BME280;66189;49.000;11.640;2023-01-28T11:31:42;96657.78;;;-0.69;85.10
31775;BME280;66189;49.000;11.640;2023-01-28T11:33:52;96650.63;;;-0.68;85.09
31775;BME280;66189;49.000;11.640;2023-01-28T11:36:18;96657.25;;;-0.66;85.09